Time;durP1;ratioP1;P1;durP2;ratioP2;P2;SDS_P1;SDS_P2;PMS_P1;PMS_P2;Temp;Humidity;BMP_temperature;BMP_pressure;BME280_temperature;BME280_humidity;BME280_pressure;Samples;Min_cycle;Max_cycle;Signal;HPM_P1;HPM_P2
2022/08/21 00:01:50;;;;;;;14.32;4.20;;;;;;;14.82;66.93;100702.13;5009226;28;20135;-44
2022/08/21 00:04:17;;;;;;;8.63;2.78;;;;;;;14.86;66.90;100702.97;5008319;28;20700;-43
2022/08/21 00:06:51;;;;;;;6.07;1.80;;;;;;;14.91;66.99;100699.03;5009633;28;21018;-48
2022/08/21 00:09:19;;;;;;;6.80;2.17;;;;;;;14.97;66.77;100700.34;5013144;28;20037;-44
2022/08/21 00:11:47;;;;;;;8.57;2.40;;;;;;;14.94;66.86;100698.31;5009680;28;20123;-43
2022/08/21 00:14:14;;;;;;;9.63;2.00;;;;;;;14.93;67.05;100703.06;5010869;28;20098;-42
2022/08/21 00:16:41;;;;;;;5.28;1.63;;;;;;;14.98;66.73;100708.34;5012889;28;20642;-47
2022/08/21 00:19:08;;;;;;;11.02;2.67;;;;;;;15.03;66.50;100704.44;5009086;28;20057;-42
2022/08/21 00:21:35;;;;;;;7.05;1.85;;;;;;;15.06;66.72;100698.88;5012822;28;20037;-42
2022/08/21 00:24:03;;;;;;;12.02;2.60;;;;;;;15.07;66.58;100708.88;5007714;28;20124;-47
2022/08/21 00:26:30;;;;;;;7.15;1.95;;;;;;;15.05;66.08;100714.03;5010414;28;20045;-48
2022/08/21 00:28:56;;;;;;;10.82;2.20;;;;;;;14.99;66.03;100709.94;5008852;28;20044;-44
2022/08/21 00:31:24;;;;;;;16.42;2.65;;;;;;;14.96;66.03;100710.69;5010116;28;20051;-43
2022/08/21 00:33:51;;;;;;;13.23;1.95;;;;;;;14.98;66.08;100715.91;5009010;28;20034;-43
2022/08/21 00:36:26;;;;;;;6.47;1.75;;;;;;;14.97;66.23;100711.50;5013854;28;20060;-46
2022/08/21 00:38:53;;;;;;;6.43;1.77;;;;;;;14.94;66.10;100712.25;5009773;28;20796;-42
2022/08/21 00:41:20;;;;;;;14.02;2.42;;;;;;;14.89;66.46;100705.00;5008016;28;20203;-45
2022/08/21 00:44:10;;;;;;;7.07;2.05;;;;;;;14.87;66.44;100709.34;5015512;28;20077;-43
2022/08/21 00:46:38;;;;;;;9.95;2.10;;;;;;;14.85;66.36;100706.94;5021588;28;20041;-43
2022/08/21 00:49:11;;;;;;;10.18;2.42;;;;;;;14.88;66.33;100706.19;5011306;28;20046;-42
2022/08/21 00:51:59;;;;;;;9.40;1.40;;;;;;;14.89;66.37;100715.34;5023964;28;20119;-44
2022/08/21 00:54:29;;;;;;;12.43;1.92;;;;;;;14.85;66.53;100701.34;5023486;28;20049;-42
2022/08/21 00:57:00;;;;;;;8.82;1.85;;;;;;;14.80;66.45;100709.25;5026933;28;20045;-43
2022/08/21 00:59:31;;;;;;;7.85;1.92;;;;;;;14.79;66.36;100705.66;5021894;28;20042;-45
2022/08/21 01:01:58;;;;;;;7.43;1.37;;;;;;;14.75;66.53;100696.44;5028203;28;20057;-49
2022/08/21 01:04:25;;;;;;;8.32;3.10;;;;;;;14.70;66.85;100707.09;5012082;28;20064;-42
2022/08/21 01:06:54;;;;;;;9.25;2.88;;;;;;;14.68;66.64;100710.25;5027061;28;20079;-43
2022/08/21 01:09:21;;;;;;;11.48;3.13;;;;;;;14.68;66.47;100703.88;5027434;28;20077;-42
2022/08/21 01:11:49;;;;;;;5.03;1.85;;;;;;;14.61;66.60;100699.00;5019375;28;20463;-42
2022/08/21 01:14:18;;;;;;;4.30;1.73;;;;;;;14.57;66.65;100709.28;5027030;28;20054;-43
2022/08/21 01:16:49;;;;;;;6.97;2.10;;;;;;;14.55;66.77;100711.63;5028374;28;20341;-42
2022/08/21 01:19:19;;;;;;;6.57;1.30;;;;;;;14.50;66.79;100711.94;5025055;28;20045;-42
2022/08/21 01:21:47;;;;;;;8.48;1.80;;;;;;;14.46;66.69;100713.84;5026342;28;20507;-43
2022/08/21 01:24:15;;;;;;;7.90;2.03;;;;;;;14.41;66.81;100714.16;5026249;28;20041;-44
2022/08/21 01:26:42;;;;;;;9.02;2.60;;;;;;;14.36;66.92;100714.47;5025917;28;20661;-42
2022/08/21 01:29:40;;;;;;;8.70;1.98;;;;;;;14.27;67.16;100713.91;5012792;28;20081;-45
2022/08/21 01:32:11;;;;;;;7.07;1.70;;;;;;;14.18;67.32;100716.13;5025765;28;20403;-42
2022/08/21 01:34:42;;;;;;;22.02;2.78;;;;;;;14.16;67.31;100721.25;5026530;28;20075;-48
2022/08/21 01:37:10;;;;;;;7.88;1.70;;;;;;;14.09;67.54;100718.31;5021175;28;20052;-47
2022/08/21 01:39:37;;;;;;;10.15;1.65;;;;;;;14.06;67.53;100727.44;5025464;28;20440;-43
2022/08/21 01:42:05;;;;;;;18.35;4.78;;;;;;;14.06;67.44;100727.44;5027156;28;20049;-44
2022/08/21 01:44:34;;;;;;;6.53;1.75;;;;;;;14.03;67.59;100726.97;5022069;28;20083;-42
2022/08/21 01:47:04;;;;;;;11.18;2.05;;;;;;;13.96;67.69;100729.63;5022810;28;20041;-42
2022/08/21 01:49:31;;;;;;;12.52;1.90;;;;;;;13.97;67.68;100730.44;5025897;28;20077;-42
2022/08/21 01:51:58;;;;;;;9.45;2.92;;;;;;;13.93;67.68;100729.56;5024949;28;20052;-43
2022/08/21 01:54:25;;;;;;;13.45;2.15;;;;;;;13.88;67.85;100730.66;5009767;28;20069;-42
2022/08/21 01:56:54;;;;;;;8.38;2.47;;;;;;;13.87;67.63;100731.81;5026619;28;20487;-42
2022/08/21 01:59:23;;;;;;;5.63;1.75;;;;;;;13.87;67.77;100720.69;5024157;28;20047;-43
2022/08/21 02:01:54;;;;;;;14.77;2.37;;;;;;;13.85;67.91;100722.25;4997561;28;20420;-42
2022/08/21 02:04:21;;;;;;;10.35;2.75;;;;;;;13.78;67.85;100717.34;5024053;28;20286;-43
2022/08/21 02:06:49;;;;;;;12.15;1.92;;;;;;;13.72;68.15;100721.59;5026733;28;20080;-43
2022/08/21 02:09:17;;;;;;;9.95;1.67;;;;;;;13.71;68.26;100722.78;5022214;28;20103;-42
2022/08/21 02:11:45;;;;;;;6.70;2.45;;;;;;;13.69;68.28;100727.06;5024408;28;20517;-42
2022/08/21 02:14:15;;;;;;;10.07;1.80;;;;;;;13.65;68.23;100718.69;5014600;28;20049;-50
2022/08/21 02:16:59;;;;;;;7.90;2.03;;;;;;;13.62;68.26;100719.41;5016514;28;20033;-43
2022/08/21 02:19:34;;;;;;;11.50;3.38;;;;;;;13.60;68.45;100716.19;5009272;28;20050;-42
2022/08/21 02:22:07;;;;;;;11.13;2.58;;;;;;;13.58;68.30;100718.50;5025612;28;20084;-49
2022/08/21 02:24:34;;;;;;;11.52;2.78;;;;;;;13.58;68.27;100720.50;5026228;28;20592;-42
2022/08/21 02:27:04;;;;;;;14.63;2.58;;;;;;;13.55;68.28;100724.03;5027182;28;20054;-43
2022/08/21 02:29:31;;;;;;;8.95;2.92;;;;;;;13.50;68.28;100727.91;5027114;28;20045;-43
2022/08/21 02:31:58;;;;;;;10.93;1.65;;;;;;;13.42;68.75;100720.59;5027201;28;20049;-42
2022/08/21 02:34:25;;;;;;;7.38;1.70;;;;;;;13.42;68.76;100721.38;5025943;28;20053;-42
2022/08/21 02:36:55;;;;;;;10.45;2.25;;;;;;;13.38;68.76;100720.50;5023157;28;20033;-42
2022/08/21 02:39:25;;;;;;;13.65;2.65;;;;;;;13.31;69.04;100722.31;5026863;28;20091;-42
2022/08/21 02:41:54;;;;;;;8.25;2.65;;;;;;;13.29;69.24;100727.44;5027121;28;20603;-42
2022/08/21 02:44:20;;;;;;;10.27;1.85;;;;;;;13.23;69.36;100723.34;5026141;28;20037;-46
2022/08/21 02:47:01;;;;;;;11.73;2.17;;;;;;;13.19;69.46;100717.69;5016351;28;20045;-42
2022/08/21 02:49:28;;;;;;;10.48;2.08;;;;;;;13.20;69.38;100712.94;5023674;28;20102;-44
2022/08/21 02:51:55;;;;;;;11.52;2.83;;;;;;;13.15;69.39;100716.81;5025530;28;20404;-42
2022/08/21 02:54:21;;;;;;;13.68;2.85;;;;;;;13.14;69.39;100709.63;5023377;28;20080;-46
2022/08/21 02:56:48;;;;;;;13.23;2.30;;;;;;;13.12;69.62;100711.97;5011529;28;20053;-42
2022/08/21 02:59:15;;;;;;;10.10;2.17;;;;;;;13.12;69.66;100711.97;5023568;28;20045;-43
2022/08/21 03:01:42;;;;;;;8.02;2.35;;;;;;;13.15;69.56;100710.44;5059550;22;20095;-43
2022/08/21 03:04:09;;;;;;;10.65;3.00;;;;;;;13.14;69.42;100700.47;5025223;28;20136;-42
2022/08/21 03:06:36;;;;;;;13.18;2.08;;;;;;;13.04;69.64;100703.81;5027554;28;20049;-45
2022/08/21 03:09:03;;;;;;;14.32;2.08;;;;;;;12.94;69.99;100710.75;5029204;28;20053;-42
2022/08/21 03:11:30;;;;;;;15.77;2.22;;;;;;;12.88;70.30;100700.25;5029977;28;20037;-44
2022/08/21 03:13:56;;;;;;;12.07;2.35;;;;;;;12.80;70.53;100700.09;5028927;28;20049;-45
2022/08/21 03:16:23;;;;;;;13.07;2.53;;;;;;;12.79;70.48;100698.47;5026878;28;20042;-46
2022/08/21 03:18:50;;;;;;;12.45;3.22;;;;;;;12.83;70.60;100698.56;5026319;28;20100;-44
2022/08/21 03:21:18;;;;;;;5.18;1.70;;;;;;;12.86;70.39;100699.81;5027801;28;20058;-42
2022/08/21 03:23:46;;;;;;;12.02;2.08;;;;;;;12.81;70.30;100701.69;5027797;28;20499;-43
2022/08/21 03:26:13;;;;;;;12.98;2.50;;;;;;;12.83;70.20;100704.13;5027819;28;20058;-43
2022/08/21 03:28:42;;;;;;;10.82;1.77;;;;;;;12.76;70.35;100707.53;5029752;28;20068;-43
2022/08/21 03:31:09;;;;;;;7.95;2.28;;;;;;;12.73;70.49;100715.78;5027004;28;20111;-48
2022/08/21 03:33:36;;;;;;;14.90;2.72;;;;;;;12.70;70.72;100713.72;5028423;28;20046;-42
2022/08/21 03:36:06;;;;;;;12.20;2.25;;;;;;;12.66;70.67;100713.63;5027362;28;20447;-42
2022/08/21 03:38:34;;;;;;;11.10;1.70;;;;;;;12.63;70.79;100710.75;5029587;28;20052;-42
2022/08/21 03:41:02;;;;;;;10.90;2.10;;;;;;;12.60;70.83;100705.94;5026105;28;20128;-42
2022/08/21 03:43:28;;;;;;;13.52;2.25;;;;;;;12.60;70.86;100705.94;5027518;28;20395;-43
2022/08/21 03:45:59;;;;;;;15.27;2.15;;;;;;;12.61;70.80;100702.81;5025559;28;20042;-42
2022/08/21 03:48:26;;;;;;;9.48;2.20;;;;;;;12.60;70.77;100705.94;5027705;28;20045;-43
2022/08/21 03:50:54;;;;;;;9.52;2.65;;;;;;;12.54;70.97;100705.41;5028038;28;20203;-46
2022/08/21 03:53:21;;;;;;;16.15;2.80;;;;;;;12.54;70.83;100702.63;5029323;28;20156;-42
2022/08/21 03:55:52;;;;;;;13.27;2.17;;;;;;;12.51;70.78;100711.69;5025143;28;20080;-42
2022/08/21 03:58:23;;;;;;;18.10;3.75;;;;;;;12.46;70.99;100723.06;5029140;28;20047;-42
2022/08/21 04:00:52;;;;;;;12.25;1.98;;;;;;;12.44;71.17;100710.72;5023632;28;20099;-42
2022/08/21 04:03:19;;;;;;;12.70;2.30;;;;;;;12.40;71.30;100707.81;5028208;28;20050;-42
2022/08/21 04:05:46;;;;;;;13.35;2.10;;;;;;;12.35;71.42;100707.28;5027509;28;20091;-42
2022/08/21 04:08:17;;;;;;;13.13;3.72;;;;;;;12.36;71.41;100712.50;5028592;28;20041;-43
2022/08/21 04:10:46;;;;;;;13.07;1.63;;;;;;;12.33;71.57;100699.34;5028521;28;20041;-47
2022/08/21 04:13:14;;;;;;;13.27;4.88;;;;;;;12.35;71.50;100705.31;5028667;28;20099;-43
2022/08/21 04:15:42;;;;;;;12.27;2.50;;;;;;;12.34;71.56;100711.25;5023920;28;20445;-44
2022/08/21 04:18:09;;;;;;;9.07;2.00;;;;;;;12.36;71.29;100717.25;5021159;28;20080;-42
2022/08/21 04:20:36;;;;;;;10.30;3.78;;;;;;;12.34;71.33;100720.34;5022306;28;20099;-45
2022/08/21 04:23:03;;;;;;;14.40;2.35;;;;;;;12.30;71.46;100719.47;5027292;28;20447;-43
2022/08/21 04:25:31;;;;;;;8.68;2.42;;;;;;;12.26;71.68;100717.78;5025920;28;20061;-43
2022/08/21 04:27:58;;;;;;;15.93;2.80;;;;;;;12.24;71.68;100723.66;5024292;28;20044;-42
2022/08/21 04:30:25;;;;;;;13.45;2.75;;;;;;;12.19;71.75;100726.72;5026543;28;20072;-43
2022/08/21 04:32:56;;;;;;;9.65;1.63;;;;;;;12.16;71.77;100722.69;5028353;28;20058;-42
2022/08/21 04:35:26;;;;;;;12.40;2.03;;;;;;;12.17;71.74;100723.50;5024951;28;20102;-43
2022/08/21 04:37:53;;;;;;;7.05;1.83;;;;;;;12.15;71.89;100732.16;5026871;28;20045;-45
2022/08/21 04:40:21;;;;;;;11.75;2.38;;;;;;;12.15;71.82;100739.69;5028747;28;20034;-48
2022/08/21 04:42:55;;;;;;;7.50;1.77;;;;;;;12.14;71.79;100743.63;5025903;28;20049;-42
2022/08/21 04:45:35;;;;;;;15.93;2.38;;;;;;;12.11;71.93;100749.88;5026314;28;20045;-42
2022/08/21 04:48:05;;;;;;;18.85;1.98;;;;;;;12.11;71.87;100756.25;5026749;28;20048;-44
2022/08/21 04:50:59;;;;;;;13.10;2.40;;;;;;;12.10;72.02;100756.59;5028409;28;20053;-42
2022/08/21 04:53:41;;;;;;;11.75;2.22;;;;;;;12.10;71.92;100756.59;5024522;28;20573;-43
2022/08/21 04:56:12;;;;;;;13.00;2.38;;;;;;;12.07;71.80;100754.53;5023422;28;20053;-42
2022/08/21 04:58:41;;;;;;;5.50;1.58;;;;;;;12.03;71.87;100764.72;5022591;28;20053;-42
2022/08/21 05:01:15;;;;;;;8.82;1.40;;;;;;;12.01;72.15;100759.53;5026120;28;20499;-46
2022/08/21 05:03:43;;;;;;;13.27;2.40;;;;;;;12.00;72.15;100752.38;5014811;28;20133;-43
2022/08/21 05:06:13;;;;;;;11.73;3.20;;;;;;;11.94;72.34;100762.09;5025909;28;20037;-42
2022/08/21 05:08:43;;;;;;;12.80;2.22;;;;;;;11.92;72.54;100763.63;5026358;28;20053;-42
2022/08/21 05:11:11;;;;;;;11.02;1.95;;;;;;;11.90;72.54;100765.94;5027477;28;20553;-42
2022/08/21 05:13:39;;;;;;;9.43;1.73;;;;;;;11.89;72.67;100767.91;5025243;28;20049;-42
2022/08/21 05:16:07;;;;;;;9.52;2.05;;;;;;;11.90;72.67;100763.97;5015119;28;20046;-42
2022/08/21 05:18:34;;;;;;;9.90;1.67;;;;;;;11.96;72.57;100770.09;5027498;28;20049;-42
2022/08/21 05:21:00;;;;;;;14.50;2.15;;;;;;;11.98;72.58;100767.75;5027514;28;20049;-42
2022/08/21 05:23:27;;;;;;;14.40;2.65;;;;;;;11.98;72.57;100768.56;5027654;28;20049;-42
2022/08/21 05:25:55;;;;;;;9.75;1.70;;;;;;;11.97;72.46;100766.13;5021989;28;20111;-42
2022/08/21 05:28:23;;;;;;;5.40;1.45;;;;;;;11.97;72.46;100766.94;5026502;28;20043;-43
2022/08/21 05:30:52;;;;;;;12.40;3.15;;;;;;;11.98;72.66;100773.31;5023437;28;20057;-42
2022/08/21 05:33:19;;;;;;;7.43;2.20;;;;;;;11.98;72.66;100778.84;5027329;28;20038;-42
2022/08/21 05:35:55;;;;;;;18.05;2.60;;;;;;;12.00;72.56;100780.13;5023549;28;20042;-42
2022/08/21 05:38:24;;;;;;;8.30;2.10;;;;;;;12.04;72.50;100777.44;5025842;28;20048;-46
2022/08/21 05:40:51;;;;;;;7.07;1.80;;;;;;;12.05;72.46;100776.28;5023553;28;20053;-42
2022/08/21 05:43:18;;;;;;;9.40;1.63;;;;;;;12.03;72.75;100781.38;5024409;28;20087;-42
2022/08/21 05:45:45;;;;;;;11.18;2.10;;;;;;;12.04;72.74;100781.03;5023443;28;20072;-42
2022/08/21 05:48:18;;;;;;;8.38;2.10;;;;;;;12.08;72.70;100779.16;5025775;28;20055;-42
2022/08/21 05:50:50;;;;;;;19.58;4.57;;;;;;;12.13;72.44;100775.31;5027224;28;20045;-42
2022/08/21 05:53:19;;;;;;;15.32;2.70;;;;;;;12.13;72.62;100775.31;5024269;28;20049;-42
2022/08/21 05:55:47;;;;;;;8.55;3.13;;;;;;;12.12;72.83;100774.53;5024171;28;20076;-43
2022/08/21 05:58:16;;;;;;;9.93;2.15;;;;;;;12.11;72.97;100778.44;5023433;28;20049;-43
2022/08/21 06:00:47;;;;;;;15.80;2.42;;;;;;;12.15;72.98;100778.56;5024481;28;20080;-44
2022/08/21 06:03:40;;;;;;;14.57;1.85;;;;;;;12.21;72.98;100777.13;5026412;28;20029;-42
2022/08/21 06:06:07;;;;;;;12.10;2.60;;;;;;;12.27;72.92;100786.81;5025705;28;20072;-42
2022/08/21 06:08:34;;;;;;;11.70;2.10;;;;;;;12.36;72.67;100790.25;5025378;28;20049;-42
2022/08/21 06:11:02;;;;;;;11.23;2.40;;;;;;;12.43;72.56;100789.59;5023849;28;20049;-42
2022/08/21 06:13:29;;;;;;;9.93;1.45;;;;;;;12.48;72.50;100783.78;5025539;28;20041;-43
2022/08/21 06:16:12;;;;;;;7.93;2.35;;;;;;;12.48;72.54;100781.81;5021741;28;20057;-42
2022/08/21 06:18:43;;;;;;;14.95;2.00;;;;;;;12.51;72.31;100792.22;5021845;28;20038;-42
2022/08/21 06:21:11;;;;;;;10.32;1.98;;;;;;;12.51;72.56;100785.84;5025546;28;21147;-43
2022/08/21 06:23:38;;;;;;;10.73;2.17;;;;;;;12.48;72.54;100787.38;5025188;28;20045;-43
2022/08/21 06:26:06;;;;;;;11.65;2.60;;;;;;;12.54;72.43;100797.06;5025483;28;20395;-46
2022/08/21 06:28:35;;;;;;;9.35;2.17;;;;;;;12.61;72.24;100794.47;5025715;28;20092;-42
2022/08/21 06:31:10;;;;;;;9.48;2.53;;;;;;;12.70;72.13;100805.41;5022562;28;20049;-43
2022/08/21 06:33:37;;;;;;;17.60;3.33;;;;;;;12.74;71.90;100801.53;5024473;28;20472;-42
2022/08/21 06:36:04;;;;;;;10.98;2.10;;;;;;;12.78;71.91;100808.00;5024069;28;20426;-43
2022/08/21 06:38:31;;;;;;;12.13;2.13;;;;;;;12.83;71.95;100810.50;5025101;28;20049;-43
2022/08/21 06:40:58;;;;;;;13.60;2.22;;;;;;;12.87;71.92;100815.38;5025776;28;20075;-43
2022/08/21 06:43:27;;;;;;;8.98;1.88;;;;;;;12.91;71.63;100816.25;5023706;28;20046;-45
2022/08/21 06:46:05;;;;;;;10.65;1.70;;;;;;;12.92;71.66;100823.44;5020364;28;20108;-43
2022/08/21 06:48:33;;;;;;;9.80;2.97;;;;;;;12.98;71.66;100824.75;5025494;28;20095;-42
2022/08/21 06:51:00;;;;;;;14.50;2.70;;;;;;;13.01;71.67;100826.81;5019664;28;20081;-43
2022/08/21 06:53:27;;;;;;;11.25;2.00;;;;;;;13.02;71.38;100834.81;5025288;28;20037;-43
2022/08/21 06:55:54;;;;;;;11.52;2.30;;;;;;;13.00;71.38;100842.66;5025554;28;20183;-43
2022/08/21 06:58:21;;;;;;;12.38;1.80;;;;;;;13.01;71.47;100843.47;5022606;28;20049;-47
2022/08/21 07:00:51;;;;;;;9.23;2.30;;;;;;;13.01;71.65;100838.75;5021396;28;20084;-42
2022/08/21 07:03:23;;;;;;;10.80;1.95;;;;;;;13.02;71.46;100840.38;5017493;28;20495;-42
2022/08/21 07:05:50;;;;;;;10.88;1.98;;;;;;;13.01;71.46;100835.16;5025217;28;20376;-44
2022/08/21 07:08:17;;;;;;;9.60;1.67;;;;;;;13.05;71.47;100844.41;5019082;28;20683;-43
2022/08/21 07:10:44;;;;;;;11.35;1.80;;;;;;;13.09;71.58;100831.41;5024416;28;20065;-43
2022/08/21 07:13:11;;;;;;;6.45;1.90;;;;;;;13.10;71.34;100842.19;5016396;28;20058;-43
2022/08/21 07:15:39;;;;;;;10.10;1.80;;;;;;;13.17;71.42;100835.97;5026424;28;20565;-42
2022/08/21 07:18:05;;;;;;;10.27;1.75;;;;;;;13.24;71.24;100836.94;5026413;28;20048;-43
2022/08/21 07:20:33;;;;;;;7.38;1.15;;;;;;;13.26;71.29;100839.38;5026776;28;20578;-43
2022/08/21 07:23:06;;;;;;;7.70;1.85;;;;;;;13.28;71.23;100837.03;5027020;28;20507;-42
2022/08/21 07:25:33;;;;;;;9.50;2.03;;;;;;;13.31;71.34;100847.44;5017352;28;20061;-42
2022/08/21 07:28:02;;;;;;;10.55;1.95;;;;;;;13.30;71.09;100843.03;5025185;28;20048;-43
2022/08/21 07:30:29;;;;;;;15.73;2.10;;;;;;;13.34;71.26;100841.16;5026859;28;20064;-43
2022/08/21 07:32:56;;;;;;;18.00;6.00;;;;;;;13.41;71.21;100835.75;5026322;28;20569;-42
2022/08/21 07:35:24;;;;;;;13.07;2.65;;;;;;;13.46;71.10;100843.81;5025347;28;20132;-42
2022/08/21 07:37:51;;;;;;;16.25;2.83;;;;;;;13.51;70.82;100857.44;5026936;28;20042;-43
2022/08/21 07:40:18;;;;;;;11.82;2.10;;;;;;;13.56;70.77;100848.81;5026871;28;20041;-43
2022/08/21 07:42:51;;;;;;;14.20;2.03;;;;;;;13.58;70.74;100857.59;5017436;28;20045;-42
2022/08/21 07:45:20;;;;;;;10.65;1.60;;;;;;;13.67;70.63;100855.44;5025592;28;20124;-43
2022/08/21 07:47:48;;;;;;;10.20;3.72;;;;;;;13.78;70.47;100877.94;5025629;28;20502;-45
2022/08/21 07:50:20;;;;;;;7.53;1.70;;;;;;;13.89;70.63;100874.22;5027391;28;20051;-42
2022/08/21 07:52:48;;;;;;;8.85;1.85;;;;;;;13.92;70.49;100875.47;5029553;28;20072;-45
2022/08/21 07:55:20;;;;;;;10.77;1.48;;;;;;;13.94;70.50;100873.94;5030015;28;20041;-43
2022/08/21 07:57:48;;;;;;;9.77;2.33;;;;;;;13.96;70.53;100874.38;5023528;28;20103;-42
2022/08/21 08:00:19;;;;;;;9.23;1.52;;;;;;;14.02;70.62;100875.72;5018117;28;20045;-44
2022/08/21 08:02:49;;;;;;;;;;;;;;;14.10;70.67;100875.84;5027256;28;20364;-42
2022/08/21 08:05:19;;;;;;;9.48;1.70;;;;;;;14.23;71.03;100877.31;5027695;28;20370;-45
2022/08/21 08:07:46;;;;;;;12.68;2.10;;;;;;;14.33;71.20;100871.19;5029078;28;20041;-43
2022/08/21 08:10:13;;;;;;;10.35;1.88;;;;;;;14.42;71.43;100871.78;5028516;28;20480;-47
2022/08/21 08:12:42;;;;;;;8.07;1.73;;;;;;;14.55;71.79;100867.66;5021315;28;20452;-44
2022/08/21 08:15:12;;;;;;;5.40;2.03;;;;;;;14.71;71.78;100867.56;5027119;28;20136;-44
2022/08/21 08:17:39;;;;;;;6.60;1.35;;;;;;;14.89;72.15;100872.28;5020343;28;20053;-46
2022/08/21 08:20:08;;;;;;;5.93;1.50;;;;;;;15.13;72.35;100866.31;5029402;28;20489;-45
2022/08/21 08:22:37;;;;;;;9.07;1.60;;;;;;;15.44;72.27;100870.78;5029363;28;20061;-44
2022/08/21 08:25:05;;;;;;;13.02;2.30;;;;;;;15.73;71.71;100872.06;5028512;28;20059;-44
2022/08/21 08:27:35;;;;;;;9.53;1.70;;;;;;;16.02;71.37;100871.25;5026723;28;20051;-45
2022/08/21 08:30:03;;;;;;;8.95;1.67;;;;;;;16.44;71.16;100869.00;5029419;28;20058;-46
2022/08/21 08:32:30;;;;;;;113.60;66.00;;;;;;;16.97;69.62;100866.00;5027520;28;20049;-45
2022/08/21 08:34:57;;;;;;;13.00;5.55;;;;;;;17.43;67.64;100869.97;5029181;28;20069;-45
2022/08/21 08:37:25;;;;;;;6.78;2.40;;;;;;;18.31;65.67;100868.91;5027586;28;20136;-44
2022/08/21 08:40:00;;;;;;;8.85;1.98;;;;;;;19.42;62.68;100875.19;5029270;28;20041;-42
2022/08/21 08:42:35;;;;;;;6.85;1.42;;;;;;;20.46;59.43;100868.91;5029089;28;20111;-43
2022/08/21 08:45:12;;;;;;;5.97;1.23;;;;;;;21.19;56.19;100861.22;5029203;28;20045;-43
2022/08/21 08:47:58;;;;;;;9.02;1.58;;;;;;;21.94;53.83;100870.59;5025999;28;20041;-43
2022/08/21 08:51:20;;;;;;;5.55;1.02;;;;;;;22.39;51.72;100860.78;5013413;28;20042;-43
2022/08/21 08:57:51;;;;;;;7.85;2.25;;;;;;;23.70;47.56;100863.59;5028079;28;20046;-42
2022/08/21 09:00:49;;;;;;;4.50;1.30;;;;;;;24.01;45.35;100873.53;5028177;28;20097;-44
2022/08/21 09:03:16;;;;;;;4.40;1.42;;;;;;;24.25;44.33;100875.09;5025966;28;20507;-47
2022/08/21 09:06:37;;;;;;;4.95;1.38;;;;;;;24.53;43.35;100882.97;5021504;28;20040;-45
2022/08/21 09:13:17;;;;;;;1.63;0.50;;;;;;;25.24;40.57;100876.50;5025284;28;20030;-46
2022/08/21 09:27:13;;;;;;;4.20;1.27;;;;;;;26.93;37.07;100868.13;5024020;28;20114;-44
2022/08/21 09:29:50;;;;;;;5.43;0.77;;;;;;;26.82;35.67;100862.00;5026774;28;20491;-44
2022/08/21 09:32:25;;;;;;;4.00;1.05;;;;;;;26.84;35.42;100868.03;5020315;28;20124;-44
2022/08/21 09:35:11;;;;;;;0.82;0.50;;;;;;;26.97;34.80;100857.47;5019737;28;20055;-44
2022/08/21 09:41:04;;;;;;;1.70;0.65;;;;;;;26.85;34.85;100858.25;5022959;28;20041;-47
2022/08/21 09:48:29;;;;;;;1.88;0.32;;;;;;;27.09;34.60;100856.66;5021521;28;20068;-45
2022/08/21 09:51:22;;;;;;;1.10;0.40;;;;;;;27.00;34.16;100853.72;5021814;28;20049;-47
2022/08/21 10:02:24;;;;;;;3.70;0.95;;;;;;;27.20;34.24;100850.63;5024681;28;20076;-43
2022/08/21 10:09:08;;;;;;;3.05;0.70;;;;;;;25.78;34.42;100859.75;5026445;28;20503;-45
2022/08/21 10:12:03;;;;;;;3.13;0.80;;;;;;;25.65;35.39;100864.56;5023731;28;20057;-46
2022/08/21 10:15:14;;;;;;;1.85;0.88;;;;;;;26.09;34.45;100857.25;5027594;28;20136;-43
2022/08/21 10:22:08;;;;;;;4.15;0.95;;;;;;;27.32;33.09;100854.72;5028713;28;20037;-46
2022/08/21 10:25:06;;;;;;;2.47;0.90;;;;;;;27.66;33.11;100846.22;5022550;28;20037;-45
2022/08/21 10:28:03;;;;;;;3.92;0.75;;;;;;;27.55;33.10;100857.19;5028377;28;20068;-44
2022/08/21 10:34:26;;;;;;;4.53;0.77;;;;;;;27.16;32.90;100842.19;5027524;28;20386;-39
2022/08/21 10:37:40;;;;;;;2.10;0.55;;;;;;;27.74;32.44;100841.88;5021727;28;20064;-40
2022/08/21 10:40:12;;;;;;;2.85;0.60;;;;;;;27.47;31.91;100833.88;5020879;28;20077;-40
2022/08/21 10:46:47;;;;;;;3.63;0.50;;;;;;;27.11;32.07;100847.69;5028413;28;20519;-45
2022/08/21 10:53:56;;;;;;;1.80;0.57;;;;;;;26.50;33.12;100848.75;5028502;28;20034;-44
2022/08/21 10:56:28;;;;;;;3.70;0.57;;;;;;;26.23;33.46;100850.41;4961119;28;20050;-39
2022/08/21 11:03:10;;;;;;;1.80;0.60;;;;;;;24.87;34.45;100845.84;5016887;28;20415;-45
2022/08/21 11:05:49;;;;;;;1.60;0.47;;;;;;;24.38;35.17;100850.56;5022379;28;20080;-43
2022/08/21 11:16:03;;;;;;;3.08;0.60;;;;;;;23.24;37.06;100847.44;5019559;28;20438;-44
2022/08/21 11:18:33;;;;;;;8.98;1.27;;;;;;;22.88;37.91;100842.38;5029705;28;20491;-45
2022/08/21 11:21:15;;;;;;;4.65;0.55;;;;;;;22.76;37.77;100847.81;5025652;28;20045;-43
2022/08/21 11:24:03;;;;;;;1.83;0.63;;;;;;;22.63;37.93;100836.31;5020439;28;20042;-43
2022/08/21 11:26:47;;;;;;;1.63;0.38;;;;;;;22.33;38.58;100834.25;5024108;28;20423;-44
2022/08/21 11:29:34;;;;;;;0.73;0.20;;;;;;;22.10;38.32;100836.97;5029152;28;20052;-44
2022/08/21 11:32:15;;;;;;;1.55;0.30;;;;;;;21.95;39.04;100838.34;5030037;28;20056;-44
2022/08/21 11:39:12;;;;;;;1.65;0.63;;;;;;;21.53;39.34;100841.59;5027795;28;20038;-43
2022/08/21 11:41:52;;;;;;;3.75;0.50;;;;;;;21.37;39.74;100838.53;5030798;28;20100;-43
2022/08/21 11:44:21;;;;;;;3.88;0.70;;;;;;;21.28;40.15;100836.22;5036487;28;20049;-43
2022/08/21 11:47:27;;;;;;;1.60;0.20;;;;;;;21.29;40.34;100837.00;5036499;28;20049;-43
2022/08/21 11:50:16;;;;;;;3.63;0.57;;;;;;;21.42;40.70;100830.44;5023320;28;20057;-43
2022/08/21 11:53:33;;;;;;;3.13;0.45;;;;;;;21.47;40.71;100834.81;5026203;28;20052;-43
2022/08/21 11:56:45;;;;;;;4.57;1.23;;;;;;;21.40;40.81;100840.50;5030620;28;20482;-44
2022/08/21 11:59:20;;;;;;;4.70;0.50;;;;;;;21.42;40.48;100835.28;5029841;28;20053;-43
2022/08/21 12:01:50;;;;;;;2.03;0.40;;;;;;;21.40;40.53;100838.50;5021374;28;20076;-44
2022/08/21 12:08:33;;;;;;;1.33;0.30;;;;;;;21.49;40.61;100832.38;5032470;28;20037;-43
2022/08/21 12:15:06;;;;;;;2.13;0.40;;;;;;;21.74;39.84;100827.28;5021408;28;19917;-45
2022/08/21 12:17:39;;;;;;;1.50;0.30;;;;;;;21.74;39.66;100830.09;5026244;28;20065;-45
2022/08/21 12:24:15;;;;;;;0.60;0.40;;;;;;;22.02;38.79;100832.66;5031525;28;20041;-43
2022/08/21 12:26:54;;;;;;;1.38;0.40;;;;;;;22.09;38.56;100828.94;5036265;28;20033;-43
2022/08/21 12:29:31;;;;;;;4.22;0.77;;;;;;;22.08;38.47;100827.34;5034876;28;20053;-44
2022/08/21 12:32:18;;;;;;;2.10;0.63;;;;;;;22.07;38.48;100828.56;5033431;28;20057;-44
2022/08/21 12:34:54;;;;;;;1.63;0.40;;;;;;;22.11;37.97;100832.91;5035294;28;20048;-44
2022/08/21 12:37:41;;;;;;;2.47;0.75;;;;;;;22.24;37.87;100831.13;5035185;28;20057;-43
2022/08/21 12:40:16;;;;;;;1.00;0.30;;;;;;;22.33;38.31;100827.81;5035440;28;20046;-43
2022/08/21 12:42:49;;;;;;;2.85;0.50;;;;;;;22.50;37.69;100825.97;5034604;28;20054;-44
2022/08/21 12:45:33;;;;;;;2.15;0.35;;;;;;;22.68;37.51;100827.34;5034766;28;20120;-43
2022/08/21 12:48:09;;;;;;;2.80;0.50;;;;;;;22.87;37.07;100845.63;5033323;28;20091;-43
2022/08/21 12:51:17;;;;;;;6.68;0.85;;;;;;;22.86;38.86;100844.00;5034342;28;20045;-43
2022/08/21 12:58:24;;;;;;;3.30;0.98;;;;;;;22.82;40.17;100848.94;5030283;28;20036;-46
2022/08/21 13:04:41;;;;;;;1.98;0.85;;;;;;;22.77;40.97;100855.06;5021589;28;20045;-43
2022/08/21 13:07:11;;;;;;;3.38;0.50;;;;;;;22.61;40.66;100849.22;5035038;28;20045;-45
2022/08/21 13:21:14;;;;;;;5.45;0.80;;;;;;;21.82;42.30;100837.25;5034430;28;20041;-44
2022/08/21 13:23:41;;;;;;;7.30;1.25;;;;;;;21.97;42.09;100838.75;5034119;28;20050;-44
2022/08/21 13:27:02;;;;;;;1.73;0.60;;;;;;;22.03;41.87;100831.41;5033621;28;20089;-43
2022/08/21 13:33:12;;;;;;;3.90;1.02;;;;;;;22.28;41.34;100837.56;5022121;28;20432;-44
2022/08/21 13:35:58;;;;;;;5.25;1.27;;;;;;;22.45;40.39;100835.72;5032670;28;20072;-45